Metar GG30 METAR message from awiacja.imgw.pl Metar G30 EPLB METAR EPLB 240430Z 11006KT 0250 FG VV001 11/11 Q1017 =